Terminal Aerodrome Forecast
Issued by NWS Sterling, VA

Home | Current Version | Previous Version | Text Only | Print | Product List | Glossary On
Versions: 1 2 3 4 5 6 7 8 9 10 11 12 13 14 15
000
FTUS41 KLWX 250536
TAFMRB
TAF
KMRB 250536Z 2506/2606 22005KT P6SM BKN130
     FM252100 16004KT P6SM OVC050
     FM260400 09006KT P6SM OVC050=

USA.gov is the U.S. government's official web portal to all federal, state and local government web resources and services.